createdAt,value
2022-11-15T00:00:18.204Z,100805.10
2022-11-15T00:03:03.008Z,100801.46
2022-11-15T00:05:48.860Z,100795.75
2022-11-15T00:08:33.708Z,100789.56
2022-11-15T00:11:18.794Z,100787.89
2022-11-15T00:14:03.701Z,100784.78
2022-11-15T00:16:48.470Z,100780.11
2022-11-15T00:19:33.744Z,100776.24
2022-11-15T00:22:18.542Z,100772.86
2022-11-15T00:25:04.044Z,100769.08
2022-11-15T00:27:48.666Z,100766.36
2022-11-15T00:30:33.560Z,100761.43
2022-11-15T00:33:18.102Z,100757.22
2022-11-15T00:36:05.570Z,100753.74
2022-11-15T00:38:50.109Z,100747.11
2022-11-15T00:41:35.048Z,100748.54
2022-11-15T00:44:19.618Z,100743.98
2022-11-15T00:47:04.373Z,100735.36
2022-11-15T00:49:48.989Z,100733.23
2022-11-15T00:52:33.583Z,100727.62
2022-11-15T00:55:19.487Z,100728.19
2022-11-15T00:58:04.360Z,100726.09
2022-11-15T01:00:49.089Z,100718.14
2022-11-15T01:03:34.856Z,100714.40
2022-11-15T01:06:19.913Z,100706.35
2022-11-15T01:09:04.665Z,100703.74
2022-11-15T01:11:49.342Z,100703.25
2022-11-15T01:14:34.264Z,100697.01
2022-11-15T01:17:18.939Z,100695.88
2022-11-15T01:20:04.297Z,100689.01
2022-11-15T01:22:49.176Z,100688.27
2022-11-15T01:25:34.005Z,100683.91
2022-11-15T01:28:18.852Z,100673.73
2022-11-15T01:31:06.646Z,100671.45
2022-11-15T01:33:51.368Z,100669.33
2022-11-15T01:36:35.801Z,100678.11
2022-11-15T01:39:20.867Z,100664.95
2022-11-15T01:42:05.431Z,100668.45
2022-11-15T01:44:52.218Z,100665.46
2022-11-15T01:47:41.089Z,100663.80
2022-11-15T01:50:30.765Z,100662.89
2022-11-15T01:53:16.556Z,100662.17
2022-11-15T01:56:07.018Z,100652.23
2022-11-15T01:58:56.100Z,100654.15
2022-11-15T02:01:41.124Z,100644.18
2022-11-15T02:04:34.445Z,100642.20
2022-11-15T02:07:22.192Z,100638.03
2022-11-15T02:10:14.402Z,100640.55
2022-11-15T02:13:01.061Z,100633.00
2022-11-15T02:16:02.818Z,100630.52
2022-11-15T02:19:27.171Z,100632.98
2022-11-15T02:22:46.473Z,100635.88
2022-11-15T02:25:57.523Z,100631.15
2022-11-15T02:29:10.752Z,100628.05
2022-11-15T02:32:16.178Z,100619.98
2022-11-15T02:35:20.344Z,100617.50
2022-11-15T02:38:36.368Z,100609.16
2022-11-15T02:41:32.041Z,100610.18
2022-11-15T02:44:30.897Z,100610.52
2022-11-15T02:47:18.114Z,100607.05
2022-11-15T02:50:05.562Z,100606.52
2022-11-15T02:52:50.220Z,100594.84
2022-11-15T02:55:36.684Z,100591.56
2022-11-15T02:58:49.094Z,100597.17
2022-11-15T03:01:42.776Z,100593.88
2022-11-15T03:04:49.034Z,100585.44
2022-11-15T03:07:46.267Z,100579.31
2022-11-15T03:10:43.093Z,100576.63
2022-11-15T03:13:50.826Z,100572.20
2022-11-15T03:16:40.221Z,100577.45
2022-11-15T03:19:48.411Z,100576.39
2022-11-15T03:22:41.124Z,100568.86
2022-11-15T03:25:29.124Z,100564.93
2022-11-15T03:28:21.072Z,100556.06
2022-11-15T03:31:27.637Z,100558.00
2022-11-15T03:34:36.449Z,100550.36
2022-11-15T03:37:25.256Z,100544.77
2022-11-15T03:40:11.146Z,100540.25
2022-11-15T03:43:06.358Z,100534.55
2022-11-15T03:46:05.916Z,100532.98
2022-11-15T03:48:55.283Z,100532.93
2022-11-15T03:51:40.816Z,100530.69
2022-11-15T03:54:25.570Z,100524.77
2022-11-15T03:57:10.162Z,100525.89
2022-11-15T03:59:54.995Z,100522.17
2022-11-15T04:02:39.692Z,100520.27
2022-11-15T04:05:25.130Z,100512.84
2022-11-15T04:08:09.575Z,100512.71
2022-11-15T04:10:54.177Z,100506.91
2022-11-15T04:13:38.957Z,100511.64
2022-11-15T04:16:23.484Z,100506.57
2022-11-15T04:19:26.903Z,100504.30
2022-11-15T04:22:30.226Z,100505.70
2022-11-15T04:25:18.405Z,100497.30
2022-11-15T04:28:05.598Z,100502.17
2022-11-15T04:30:50.041Z,100497.83
2022-11-15T04:33:35.110Z,100492.04
2022-11-15T04:36:39.904Z,100494.48
2022-11-15T04:39:24.372Z,100494.73
2022-11-15T04:42:10.421Z,100493.39
2022-11-15T04:44:56.329Z,100495.44
2022-11-15T04:47:44.371Z,100492.69
2022-11-15T04:50:29.182Z,100489.90
2022-11-15T04:53:14.008Z,100489.14
2022-11-15T04:55:58.661Z,100485.48
2022-11-15T04:58:43.468Z,100486.20
2022-11-15T05:01:27.964Z,100490.61
2022-11-15T05:04:21.839Z,100488.21
2022-11-15T05:07:06.708Z,100484.48
2022-11-15T05:09:51.303Z,100478.25
2022-11-15T05:12:36.204Z,100473.41
2022-11-15T05:15:20.989Z,100473.21
2022-11-15T05:18:05.709Z,100470.11
2022-11-15T05:20:50.208Z,100473.27
2022-11-15T05:23:35.039Z,100472.30
2022-11-15T05:26:19.879Z,100466.76
2022-11-15T05:29:04.849Z,100466.17
2022-11-15T05:31:49.868Z,100465.55
2022-11-15T05:34:34.509Z,100472.37
2022-11-15T05:37:19.257Z,100468.77
2022-11-15T05:40:04.326Z,100468.70
2022-11-15T05:42:49.013Z,100466.79
2022-11-15T05:45:35.294Z,100463.63
2022-11-15T05:48:20.327Z,100460.27
2022-11-15T05:51:07.315Z,100461.98
2022-11-15T05:53:53.731Z,100458.23
2022-11-15T05:56:38.688Z,100457.25
2022-11-15T05:59:24.365Z,100451.24
2022-11-15T06:02:09.488Z,100448.69
2022-11-15T06:04:54.187Z,100446.86
2022-11-15T06:07:39.023Z,100450.92
2022-11-15T06:10:23.548Z,100454.91
2022-11-15T06:13:08.098Z,100450.42
2022-11-15T06:15:57.033Z,100457.02
2022-11-15T06:18:41.638Z,100461.11
2022-11-15T06:21:28.331Z,100462.95
2022-11-15T06:24:13.103Z,100468.81
2022-11-15T06:26:58.054Z,100468.54
2022-11-15T06:29:42.855Z,100462.25
2022-11-15T06:32:31.062Z,100459.91
2022-11-15T06:35:15.954Z,100454.20
2022-11-15T06:42:28.445Z,100463.63
2022-11-15T06:45:13.502Z,100464.98
2022-11-15T06:47:59.276Z,100465.31
2022-11-15T06:50:51.204Z,100474.15
2022-11-15T06:53:36.101Z,100475.78
2022-11-15T06:56:21.126Z,100476.64
2022-11-15T06:59:05.888Z,100480.53
2022-11-15T07:01:50.590Z,100479.90
2022-11-15T07:13:43.128Z,100481.25
2022-11-15T07:39:01.314Z,100476.89
2022-11-15T07:46:14.225Z,100471.52
2022-11-15T07:48:58.947Z,100468.23
2022-11-15T07:56:08.003Z,100463.03
2022-11-15T07:58:52.853Z,100461.59
2022-11-15T08:05:14.802Z,100449.60
2022-11-15T08:12:32.309Z,100434.80
2022-11-15T08:28:39.405Z,100422.58
2022-11-15T08:40:14.225Z,100420.44
2022-11-15T08:43:02.750Z,100419.52
2022-11-15T08:45:47.688Z,100417.37
2022-11-15T08:57:30.831Z,100415.05
2022-11-15T09:09:10.134Z,100401.04
2022-11-15T09:16:22.362Z,100393.55
2022-11-15T09:28:06.979Z,100379.64
2022-11-15T09:44:25.701Z,100361.52
2022-11-15T09:47:19.957Z,100360.25
2022-11-15T09:59:08.266Z,100349.05
2022-11-15T10:06:04.571Z,100344.52
2022-11-15T10:08:49.123Z,100339.66
2022-11-15T10:11:38.593Z,100333.34
2022-11-15T10:14:19.309Z,100331.25
2022-11-15T10:17:00.753Z,100326.35
2022-11-15T10:19:36.403Z,100328.30
2022-11-15T10:22:14.725Z,100325.81
2022-11-15T10:33:36.394Z,100320.34
2022-11-15T10:36:08.597Z,100321.06
2022-11-15T10:38:50.054Z,100318.98
2022-11-15T10:45:53.283Z,100307.42
2022-11-15T10:48:22.881Z,100304.16
2022-11-15T10:50:50.992Z,100302.30
2022-11-15T10:53:31.201Z,100300.92
2022-11-15T11:00:21.281Z,100296.27
2022-11-15T11:07:22.352Z,100287.98
2022-11-15T11:19:01.996Z,100290.34
2022-11-15T11:34:50.602Z,100268.22
2022-11-15T11:37:58.569Z,100265.10
2022-11-15T11:44:53.461Z,100262.81
2022-11-15T11:56:20.182Z,100238.69
2022-11-15T11:58:48.263Z,100239.58
2022-11-15T12:01:44.041Z,100235.20
2022-11-15T12:08:53.803Z,100227.66
2022-11-15T12:15:57.185Z,100225.88
2022-11-15T12:22:47.859Z,100217.69
2022-11-15T12:25:26.032Z,100216.82
2022-11-15T12:32:31.094Z,100206.30
2022-11-15T12:39:18.263Z,100198.73
2022-11-15T12:55:41.077Z,100201.73
2022-11-15T12:58:28.846Z,100201.20
2022-11-15T13:05:19.807Z,100189.30
2022-11-15T13:12:28.010Z,100192.25
2022-11-15T13:14:59.282Z,100189.80
2022-11-15T13:17:35.016Z,100184.89
2022-11-15T13:20:12.194Z,100187.85
2022-11-15T13:23:02.355Z,100185.56
2022-11-15T13:26:00.461Z,100177.87
2022-11-15T13:28:32.173Z,100172.27
2022-11-15T13:31:19.272Z,100169.14
2022-11-15T13:38:29.045Z,100160.23
2022-11-15T13:54:48.765Z,100155.67
2022-11-15T14:01:23.517Z,100154.98
2022-11-15T14:04:00.655Z,100156.20
2022-11-15T14:06:30.213Z,100151.48
2022-11-15T14:09:17.355Z,100148.84
2022-11-15T14:11:54.374Z,100149.52
2022-11-15T14:18:53.437Z,100138.65
2022-11-15T14:25:56.929Z,100137.06
2022-11-15T14:28:22.876Z,100140.41
2022-11-15T14:30:51.276Z,100144.61
2022-11-15T14:33:20.419Z,100143.05
2022-11-15T14:36:54.568Z,100145.33
2022-11-15T14:39:20.541Z,100132.01
2022-11-15T14:41:46.558Z,100134.98
2022-11-15T14:45:15.261Z,100131.13
2022-11-15T14:51:59.564Z,100133.77
2022-11-15T14:54:25.526Z,100134.09
2022-11-15T14:56:51.558Z,100134.11
2022-11-15T14:59:17.660Z,100133.75
2022-11-15T15:01:43.653Z,100130.95
2022-11-15T15:04:11.110Z,100133.77
2022-11-15T15:06:37.207Z,100134.46
2022-11-15T15:09:04.042Z,100130.61
2022-11-15T15:11:32.289Z,100129.91
2022-11-15T15:14:00.833Z,100125.87
2022-11-15T15:16:27.450Z,100128.15
2022-11-15T15:18:53.596Z,100130.25
2022-11-15T15:21:25.484Z,100128.67
2022-11-15T15:23:54.463Z,100123.77
2022-11-15T15:26:21.511Z,100124.29
2022-11-15T15:28:49.096Z,100123.06
2022-11-15T15:31:15.141Z,100121.14
2022-11-15T15:33:41.273Z,100118.67
2022-11-15T15:36:14.754Z,100115.86
2022-11-15T15:38:41.773Z,100116.73
2022-11-15T15:41:12.075Z,100117.44
2022-11-15T15:43:38.236Z,100116.73
2022-11-15T15:46:05.080Z,100118.67
2022-11-15T15:48:31.394Z,100119.04
2022-11-15T15:50:57.584Z,100112.72
2022-11-15T15:53:23.607Z,100108.34
2022-11-15T15:55:49.820Z,100108.15
2022-11-15T15:58:15.932Z,100106.56
2022-11-15T16:00:41.946Z,100103.42
2022-11-15T16:03:07.934Z,100101.50
2022-11-15T16:05:33.884Z,100100.28
2022-11-15T16:07:59.977Z,100098.17
2022-11-15T16:10:29.264Z,100100.83
2022-11-15T16:12:56.567Z,100095.04
2022-11-15T16:15:24.348Z,100096.09
2022-11-15T16:17:52.912Z,100091.02
2022-11-15T16:20:50.425Z,100090.13
2022-11-15T16:23:23.948Z,100089.44
2022-11-15T16:25:52.926Z,100093.64
2022-11-15T16:28:24.400Z,100088.38
2022-11-15T16:31:00.700Z,100089.27
2022-11-15T16:33:26.995Z,100092.41
2022-11-15T16:35:52.978Z,100090.66
2022-11-15T16:38:18.972Z,100087.88
2022-11-15T16:40:45.264Z,100092.95
2022-11-15T16:43:11.466Z,100098.21
2022-11-15T16:45:37.475Z,100097.33
2022-11-15T16:48:03.936Z,100095.76
2022-11-15T16:50:34.547Z,100088.57
2022-11-15T16:53:01.003Z,100090.68
2022-11-15T16:55:29.628Z,100095.06
2022-11-15T16:58:00.821Z,100098.75
2022-11-15T17:00:27.079Z,100099.09
2022-11-15T17:02:53.591Z,100092.79
2022-11-15T17:05:23.285Z,100092.27
2022-11-15T17:07:53.891Z,100089.46
2022-11-15T17:10:24.722Z,100087.00
2022-11-15T17:12:51.906Z,100088.06
2022-11-15T17:15:18.503Z,100089.10
2022-11-15T17:17:44.932Z,100086.47
2022-11-15T17:20:15.410Z,100086.11
2022-11-15T17:22:41.687Z,100086.98
2022-11-15T17:25:08.056Z,100084.19
2022-11-15T17:27:34.412Z,100078.06
2022-11-15T17:30:00.573Z,100081.22
2022-11-15T17:32:26.485Z,100087.35
2022-11-15T17:34:52.509Z,100088.94
2022-11-15T17:37:18.569Z,100094.71
2022-11-15T17:39:44.790Z,100097.17
2022-11-15T17:42:10.800Z,100095.77
2022-11-15T17:44:36.741Z,100094.53
2022-11-15T17:47:02.696Z,100095.59
2022-11-15T17:49:28.666Z,100087.89
2022-11-15T17:51:54.747Z,100085.61
2022-11-15T17:54:20.784Z,100084.73
2022-11-15T17:56:46.739Z,100075.98
2022-11-15T17:59:15.970Z,100071.60
2022-11-15T18:01:44.676Z,100071.77
2022-11-15T18:04:10.898Z,100075.11
2022-11-15T18:06:37.451Z,100071.77
2022-11-15T18:09:04.307Z,100067.91
2022-11-15T18:11:32.985Z,100070.02
2022-11-15T18:14:01.628Z,100070.19
2022-11-15T18:16:30.505Z,100069.14
2022-11-15T18:18:57.441Z,100064.23
2022-11-15T18:21:26.404Z,100061.09
2022-11-15T18:23:54.774Z,100056.70
2022-11-15T18:26:26.635Z,100056.35
2022-11-15T18:28:55.116Z,100052.84
2022-11-15T18:31:24.047Z,100057.93
2022-11-15T18:33:51.110Z,100061.27
2022-11-15T18:36:23.827Z,100061.10
2022-11-15T18:39:04.317Z,100065.30
2022-11-15T18:41:32.155Z,100065.11
2022-11-15T18:44:01.119Z,100063.55
2022-11-15T18:46:30.773Z,100066.34
2022-11-15T18:48:59.288Z,100058.81
2022-11-15T18:51:29.621Z,100060.39
2022-11-15T18:53:59.356Z,100063.37
2022-11-15T18:56:27.064Z,100062.14
2022-11-15T18:58:55.743Z,100064.07
2022-11-15T19:01:24.622Z,100063.53
2022-11-15T19:03:54.121Z,100063.88
2022-11-15T19:06:28.974Z,100061.80
2022-11-15T19:08:57.379Z,100063.20
2022-11-15T19:11:28.284Z,100063.89
2022-11-15T19:13:56.132Z,100062.50
2022-11-15T19:16:23.301Z,100063.53
2022-11-15T19:19:00.078Z,100060.39
2022-11-15T19:21:27.156Z,100059.00
2022-11-15T19:23:53.716Z,100063.55
2022-11-15T19:26:24.060Z,100060.23
2022-11-15T19:28:55.364Z,100060.91
2022-11-15T19:31:23.336Z,100061.10
2022-11-15T19:33:50.528Z,100057.95
2022-11-15T19:36:22.661Z,100054.80
2022-11-15T19:38:49.173Z,100053.73
2022-11-15T19:41:17.564Z,100054.27
2022-11-15T19:43:44.110Z,100054.80
2022-11-15T19:46:11.780Z,100052.34
2022-11-15T19:48:38.362Z,100048.84
2022-11-15T19:51:07.337Z,100042.01
2022-11-15T19:53:35.397Z,100038.34
2022-11-15T19:56:05.071Z,100042.34
2022-11-15T19:58:31.404Z,100039.04
2022-11-15T20:01:05.202Z,100042.01
2022-11-15T20:03:32.988Z,100041.31
2022-11-15T20:06:11.187Z,100039.91
2022-11-15T20:08:37.928Z,100036.23
2022-11-15T20:11:04.888Z,100032.55
2022-11-15T20:13:31.543Z,100034.48
2022-11-15T20:15:58.235Z,100035.17
2022-11-15T20:18:26.601Z,100034.14
2022-11-15T20:20:55.926Z,100035.18
2022-11-15T20:23:22.176Z,100039.39
2022-11-15T20:25:48.962Z,100037.10
2022-11-15T20:28:18.027Z,100031.66
2022-11-15T20:30:45.275Z,100031.51
2022-11-15T20:33:12.338Z,100035.70
2022-11-15T20:35:38.290Z,100032.91
2022-11-15T20:38:06.531Z,100036.58
2022-11-15T20:40:32.699Z,100037.45
2022-11-15T20:42:58.734Z,100036.77
2022-11-15T20:45:24.848Z,100040.42
2022-11-15T20:47:54.615Z,100038.69
2022-11-15T20:50:40.969Z,100039.38
2022-11-15T20:53:07.258Z,100042.02
2022-11-15T20:55:33.663Z,100038.84
2022-11-15T20:57:59.590Z,100034.11
2022-11-15T21:00:25.660Z,100030.28
2022-11-15T21:02:52.543Z,100025.56
2022-11-15T21:05:18.685Z,100020.30
2022-11-15T21:07:44.867Z,100019.60
2022-11-15T21:10:29.533Z,100017.67
2022-11-15T21:12:55.558Z,100023.45
2022-11-15T21:15:21.812Z,100026.78
2022-11-15T21:17:47.752Z,100029.22
2022-11-15T21:20:16.484Z,100026.27
2022-11-15T21:22:42.537Z,100023.98
2022-11-15T21:25:08.999Z,100019.24
2022-11-15T21:27:35.078Z,100015.57
2022-11-15T21:30:01.316Z,100016.27
2022-11-15T21:32:28.554Z,100011.36
2022-11-15T21:34:54.688Z,100009.79
2022-11-15T21:37:20.720Z,100001.39
2022-11-15T21:39:46.937Z,100003.48
2022-11-15T21:42:12.958Z,99998.06
2022-11-15T21:44:39.046Z,99989.48
2022-11-15T21:47:06.032Z,99984.58
2022-11-15T21:49:32.119Z,99987.55
2022-11-15T21:51:58.135Z,99993.33
2022-11-15T21:54:24.205Z,99988.95
2022-11-15T21:56:50.169Z,99982.13
2022-11-15T21:59:16.194Z,99980.38
2022-11-15T22:02:00.819Z,99978.63
2022-11-15T22:04:26.875Z,99977.58
2022-11-15T22:06:52.910Z,99976.88
2022-11-15T22:09:19.014Z,99976.52
2022-11-15T22:11:45.253Z,99979.50
2022-11-15T22:14:11.662Z,99978.80
2022-11-15T22:16:38.886Z,99971.61
2022-11-15T22:19:04.981Z,99968.46
2022-11-15T22:21:30.968Z,99962.14
2022-11-15T22:23:58.161Z,99960.23
2022-11-15T22:26:24.344Z,99954.63
2022-11-15T22:28:51.212Z,99954.81
2022-11-15T22:31:17.360Z,99948.85
2022-11-15T22:33:43.426Z,99943.06
2022-11-15T22:36:11.821Z,99946.20
2022-11-15T22:38:37.932Z,99940.92
2022-11-15T22:41:04.008Z,99939.55
2022-11-15T22:43:30.199Z,99934.64
2022-11-15T22:45:58.767Z,99931.68
2022-11-15T22:48:31.008Z,99926.09
2022-11-15T22:50:57.833Z,99924.70
2022-11-15T22:53:24.887Z,99920.16
2022-11-15T22:55:52.625Z,99921.19
2022-11-15T22:58:19.712Z,99918.23
2022-11-15T23:00:48.666Z,99918.22
2022-11-15T23:03:16.179Z,99915.06
2022-11-15T23:05:42.292Z,99916.30
2022-11-15T23:08:08.271Z,99910.70
2022-11-15T23:10:52.810Z,99909.80
2022-11-15T23:13:18.906Z,99909.98
2022-11-15T23:16:07.389Z,99915.23
2022-11-15T23:18:42.327Z,99906.98
2022-11-15T23:21:13.970Z,99906.27
2022-11-15T23:23:40.406Z,99911.00
2022-11-15T23:26:07.451Z,99908.89
2022-11-15T23:28:34.824Z,99915.39
2022-11-15T23:31:24.855Z,99920.66
2022-11-15T23:33:56.733Z,99922.56
2022-11-15T23:36:23.505Z,99918.01
2022-11-15T23:38:49.544Z,99912.22
2022-11-15T23:41:15.705Z,99909.23
2022-11-15T23:43:41.905Z,99901.34
2022-11-15T23:46:07.969Z,99897.16
2022-11-15T23:48:34.625Z,99894.71
2022-11-15T23:51:00.941Z,99894.20
2022-11-15T23:53:27.050Z,99897.52
2022-11-15T23:55:58.935Z,99895.27
2022-11-15T23:58:25.164Z,99896.13
